sensor_id;sensor_type;location;lat;lon;timestamp;P1;durP1;ratioP1;P2;durP2;ratioP2
4096;SDS011;2062;50.694;7.246;2022-09-11T00:01:03;3.83;;;1.60;;
4096;SDS011;2062;50.694;7.246;2022-09-11T00:03:31;4.75;;;1.50;;
4096;SDS011;2062;50.694;7.246;2022-09-11T00:06:00;3.92;;;1.50;;
4096;SDS011;2062;50.694;7.246;2022-09-11T00:08:28;3.85;;;1.75;;
4096;SDS011;2062;50.694;7.246;2022-09-11T00:11:00;4.25;;;1.73;;
4096;SDS011;2062;50.694;7.246;2022-09-11T00:13:29;3.90;;;1.50;;
4096;SDS011;2062;50.694;7.246;2022-09-11T00:15:56;4.57;;;1.65;;
4096;SDS011;2062;50.694;7.246;2022-09-11T00:18:23;3.90;;;1.50;;
4096;SDS011;2062;50.694;7.246;2022-09-11T00:20:52;3.80;;;1.50;;
4096;SDS011;2062;50.694;7.246;2022-09-11T00:23:22;3.35;;;1.40;;
4096;SDS011;2062;50.694;7.246;2022-09-11T00:25:50;4.67;;;1.50;;
4096;SDS011;2062;50.694;7.246;2022-09-11T00:28:20;4.40;;;1.50;;
4096;SDS011;2062;50.694;7.246;2022-09-11T00:30:55;3.40;;;1.50;;
4096;SDS011;2062;50.694;7.246;2022-09-11T00:33:23;3.85;;;1.67;;
4096;SDS011;2062;50.694;7.246;2022-09-11T00:35:52;4.50;;;1.45;;
4096;SDS011;2062;50.694;7.246;2022-09-11T00:38:22;3.87;;;1.50;;
4096;SDS011;2062;50.694;7.246;2022-09-11T00:40:51;4.38;;;1.55;;
4096;SDS011;2062;50.694;7.246;2022-09-11T00:43:19;4.22;;;1.40;;
4096;SDS011;2062;50.694;7.246;2022-09-11T00:45:47;5.55;;;1.60;;
4096;SDS011;2062;50.694;7.246;2022-09-11T00:48:20;3.90;;;1.63;;
4096;SDS011;2062;50.694;7.246;2022-09-11T00:50:50;3.87;;;1.63;;
4096;SDS011;2062;50.694;7.246;2022-09-11T00:53:20;3.58;;;1.60;;
4096;SDS011;2062;50.694;7.246;2022-09-11T00:55:51;3.38;;;1.30;;
4096;SDS011;2062;50.694;7.246;2022-09-11T00:58:24;3.97;;;1.73;;
4096;SDS011;2062;50.694;7.246;2022-09-11T01:00:54;3.80;;;1.40;;
4096;SDS011;2062;50.694;7.246;2022-09-11T01:03:22;3.40;;;1.50;;
4096;SDS011;2062;50.694;7.246;2022-09-11T01:05:49;4.90;;;1.35;;
4096;SDS011;2062;50.694;7.246;2022-09-11T01:08:17;4.10;;;1.58;;
4096;SDS011;2062;50.694;7.246;2022-09-11T01:10:47;3.65;;;1.63;;
4096;SDS011;2062;50.694;7.246;2022-09-11T01:13:26;4.65;;;1.60;;
4096;SDS011;2062;50.694;7.246;2022-09-11T01:16:01;3.63;;;1.40;;
4096;SDS011;2062;50.694;7.246;2022-09-11T01:18:35;3.40;;;1.40;;
4096;SDS011;2062;50.694;7.246;2022-09-11T01:21:17;3.90;;;1.70;;
4096;SDS011;2062;50.694;7.246;2022-09-11T01:24:18;3.80;;;1.52;;
4096;SDS011;2062;50.694;7.246;2022-09-11T01:29:54;4.10;;;1.50;;
4096;SDS011;2062;50.694;7.246;2022-09-11T01:32:27;3.90;;;1.33;;
4096;SDS011;2062;50.694;7.246;2022-09-11T01:35:02;3.97;;;1.60;;
4096;SDS011;2062;50.694;7.246;2022-09-11T01:37:37;5.25;;;1.60;;
4096;SDS011;2062;50.694;7.246;2022-09-11T01:40:09;4.65;;;1.50;;
4096;SDS011;2062;50.694;7.246;2022-09-11T01:42:43;3.87;;;1.50;;
4096;SDS011;2062;50.694;7.246;2022-09-11T01:45:12;3.90;;;1.70;;
4096;SDS011;2062;50.694;7.246;2022-09-11T01:47:41;3.83;;;1.63;;
4096;SDS011;2062;50.694;7.246;2022-09-11T01:50:11;3.30;;;1.40;;
4096;SDS011;2062;50.694;7.246;2022-09-11T01:52:42;3.55;;;1.38;;
4096;SDS011;2062;50.694;7.246;2022-09-11T01:55:15;3.70;;;1.70;;
4096;SDS011;2062;50.694;7.246;2022-09-11T01:57:48;3.72;;;1.45;;
4096;SDS011;2062;50.694;7.246;2022-09-11T02:00:19;3.80;;;1.50;;
4096;SDS011;2062;50.694;7.246;2022-09-11T02:02:47;3.70;;;1.45;;
4096;SDS011;2062;50.694;7.246;2022-09-11T02:05:17;3.80;;;1.40;;
4096;SDS011;2062;50.694;7.246;2022-09-11T02:07:47;4.37;;;1.50;;
4096;SDS011;2062;50.694;7.246;2022-09-11T02:10:21;4.55;;;1.50;;
4096;SDS011;2062;50.694;7.246;2022-09-11T02:12:55;3.78;;;1.70;;
4096;SDS011;2062;50.694;7.246;2022-09-11T02:15:29;4.30;;;1.40;;
4096;SDS011;2062;50.694;7.246;2022-09-11T02:18:00;4.30;;;1.52;;
4096;SDS011;2062;50.694;7.246;2022-09-11T02:20:33;3.50;;;1.30;;
4096;SDS011;2062;50.694;7.246;2022-09-11T02:23:00;4.88;;;1.80;;
4096;SDS011;2062;50.694;7.246;2022-09-11T02:25:27;3.65;;;1.70;;
4096;SDS011;2062;50.694;7.246;2022-09-11T02:27:55;4.13;;;1.48;;
4096;SDS011;2062;50.694;7.246;2022-09-11T02:30:23;4.63;;;1.95;;
4096;SDS011;2062;50.694;7.246;2022-09-11T02:32:50;4.37;;;1.60;;
4096;SDS011;2062;50.694;7.246;2022-09-11T02:35:19;3.88;;;1.60;;
4096;SDS011;2062;50.694;7.246;2022-09-11T02:37:52;3.88;;;1.77;;
4096;SDS011;2062;50.694;7.246;2022-09-11T02:40:28;3.60;;;1.50;;
4096;SDS011;2062;50.694;7.246;2022-09-11T02:43:10;3.90;;;1.55;;
4096;SDS011;2062;50.694;7.246;2022-09-11T02:45:51;3.83;;;1.70;;
4096;SDS011;2062;50.694;7.246;2022-09-11T02:48:33;3.45;;;1.30;;
4096;SDS011;2062;50.694;7.246;2022-09-11T02:51:11;3.70;;;1.60;;
4096;SDS011;2062;50.694;7.246;2022-09-11T02:53:46;4.18;;;1.70;;
4096;SDS011;2062;50.694;7.246;2022-09-11T02:56:20;3.65;;;1.60;;
4096;SDS011;2062;50.694;7.246;2022-09-11T02:58:54;3.90;;;1.50;;
4096;SDS011;2062;50.694;7.246;2022-09-11T03:01:23;3.53;;;1.60;;
4096;SDS011;2062;50.694;7.246;2022-09-11T03:03:50;3.92;;;1.70;;
4096;SDS011;2062;50.694;7.246;2022-09-11T03:06:18;3.95;;;1.80;;
4096;SDS011;2062;50.694;7.246;2022-09-11T03:08:46;3.40;;;1.50;;
4096;SDS011;2062;50.694;7.246;2022-09-11T03:11:13;4.87;;;1.70;;
4096;SDS011;2062;50.694;7.246;2022-09-11T03:13:41;4.18;;;1.70;;
4096;SDS011;2062;50.694;7.246;2022-09-11T03:16:10;3.75;;;1.85;;
4096;SDS011;2062;50.694;7.246;2022-09-11T03:18:37;4.60;;;1.50;;
4096;SDS011;2062;50.694;7.246;2022-09-11T03:21:04;3.95;;;1.70;;
4096;SDS011;2062;50.694;7.246;2022-09-11T03:23:31;4.13;;;1.73;;
4096;SDS011;2062;50.694;7.246;2022-09-11T03:25:58;3.70;;;1.60;;
4096;SDS011;2062;50.694;7.246;2022-09-11T03:28:25;4.13;;;1.90;;
4096;SDS011;2062;50.694;7.246;2022-09-11T03:30:54;4.28;;;1.90;;
4096;SDS011;2062;50.694;7.246;2022-09-11T03:33:22;4.15;;;1.70;;
4096;SDS011;2062;50.694;7.246;2022-09-11T03:35:49;3.90;;;1.70;;
4096;SDS011;2062;50.694;7.246;2022-09-11T03:38:16;4.45;;;1.67;;
4096;SDS011;2062;50.694;7.246;2022-09-11T03:40:43;4.22;;;1.60;;
4096;SDS011;2062;50.694;7.246;2022-09-11T03:43:10;5.30;;;1.95;;
4096;SDS011;2062;50.694;7.246;2022-09-11T03:45:37;4.13;;;1.70;;
4096;SDS011;2062;50.694;7.246;2022-09-11T03:48:04;4.30;;;1.87;;
4096;SDS011;2062;50.694;7.246;2022-09-11T03:50:33;4.45;;;1.80;;
4096;SDS011;2062;50.694;7.246;2022-09-11T03:52:59;5.05;;;2.05;;
4096;SDS011;2062;50.694;7.246;2022-09-11T03:55:26;3.65;;;1.63;;
4096;SDS011;2062;50.694;7.246;2022-09-11T03:57:55;4.82;;;1.90;;
4096;SDS011;2062;50.694;7.246;2022-09-11T04:00:23;4.23;;;2.00;;
4096;SDS011;2062;50.694;7.246;2022-09-11T04:02:49;9.90;;;1.95;;
4096;SDS011;2062;50.694;7.246;2022-09-11T04:05:16;4.22;;;1.92;;
4096;SDS011;2062;50.694;7.246;2022-09-11T04:07:45;4.80;;;1.83;;
4096;SDS011;2062;50.694;7.246;2022-09-11T04:10:12;3.90;;;2.00;;
4096;SDS011;2062;50.694;7.246;2022-09-11T04:12:39;5.50;;;1.80;;
4096;SDS011;2062;50.694;7.246;2022-09-11T04:15:06;4.10;;;2.03;;
4096;SDS011;2062;50.694;7.246;2022-09-11T04:17:33;4.45;;;2.33;;
4096;SDS011;2062;50.694;7.246;2022-09-11T04:20:00;4.47;;;1.90;;
4096;SDS011;2062;50.694;7.246;2022-09-11T04:22:28;4.45;;;2.10;;
4096;SDS011;2062;50.694;7.246;2022-09-11T04:24:56;4.30;;;2.13;;
4096;SDS011;2062;50.694;7.246;2022-09-11T04:27:22;3.88;;;1.98;;
4096;SDS011;2062;50.694;7.246;2022-09-11T04:29:51;4.50;;;2.35;;
4096;SDS011;2062;50.694;7.246;2022-09-11T04:32:18;4.80;;;2.05;;
4096;SDS011;2062;50.694;7.246;2022-09-11T04:34:44;4.32;;;2.17;;
4096;SDS011;2062;50.694;7.246;2022-09-11T04:37:11;4.77;;;2.20;;
4096;SDS011;2062;50.694;7.246;2022-09-11T04:39:38;4.45;;;2.05;;
4096;SDS011;2062;50.694;7.246;2022-09-11T04:42:06;4.63;;;2.13;;
4096;SDS011;2062;50.694;7.246;2022-09-11T04:44:34;5.07;;;2.00;;
4096;SDS011;2062;50.694;7.246;2022-09-11T04:47:01;4.28;;;2.38;;
4096;SDS011;2062;50.694;7.246;2022-09-11T04:49:28;4.57;;;2.00;;
4096;SDS011;2062;50.694;7.246;2022-09-11T04:51:55;4.05;;;2.00;;
4096;SDS011;2062;50.694;7.246;2022-09-11T04:54:26;4.28;;;2.10;;
4096;SDS011;2062;50.694;7.246;2022-09-11T04:56:53;4.65;;;2.17;;
4096;SDS011;2062;50.694;7.246;2022-09-11T04:59:21;4.93;;;2.33;;
4096;SDS011;2062;50.694;7.246;2022-09-11T05:01:48;5.73;;;2.40;;
4096;SDS011;2062;50.694;7.246;2022-09-11T05:04:16;4.45;;;2.35;;
4096;SDS011;2062;50.694;7.246;2022-09-11T05:06:43;4.45;;;2.13;;
4096;SDS011;2062;50.694;7.246;2022-09-11T05:09:12;4.88;;;2.38;;
4096;SDS011;2062;50.694;7.246;2022-09-11T05:11:41;4.63;;;2.22;;
4096;SDS011;2062;50.694;7.246;2022-09-11T05:14:08;5.10;;;2.30;;
4096;SDS011;2062;50.694;7.246;2022-09-11T05:16:37;4.57;;;2.30;;
4096;SDS011;2062;50.694;7.246;2022-09-11T05:19:04;4.65;;;2.40;;
4096;SDS011;2062;50.694;7.246;2022-09-11T05:21:31;5.20;;;2.20;;
4096;SDS011;2062;50.694;7.246;2022-09-11T05:23:59;4.57;;;2.30;;
4096;SDS011;2062;50.694;7.246;2022-09-11T05:26:28;4.70;;;2.23;;
4096;SDS011;2062;50.694;7.246;2022-09-11T05:28:57;5.00;;;2.42;;
4096;SDS011;2062;50.694;7.246;2022-09-11T05:31:25;4.65;;;2.28;;
4096;SDS011;2062;50.694;7.246;2022-09-11T05:33:55;4.90;;;2.35;;
4096;SDS011;2062;50.694;7.246;2022-09-11T05:36:23;5.30;;;2.35;;
4096;SDS011;2062;50.694;7.246;2022-09-11T05:38:50;5.10;;;2.30;;
4096;SDS011;2062;50.694;7.246;2022-09-11T05:41:17;5.85;;;2.50;;
4096;SDS011;2062;50.694;7.246;2022-09-11T05:43:45;5.15;;;2.70;;
4096;SDS011;2062;50.694;7.246;2022-09-11T05:46:12;4.60;;;2.35;;
4096;SDS011;2062;50.694;7.246;2022-09-11T05:48:41;4.18;;;2.13;;
4096;SDS011;2062;50.694;7.246;2022-09-11T05:51:10;5.10;;;2.40;;
4096;SDS011;2062;50.694;7.246;2022-09-11T05:53:38;4.57;;;2.53;;
4096;SDS011;2062;50.694;7.246;2022-09-11T05:56:06;4.93;;;2.60;;
4096;SDS011;2062;50.694;7.246;2022-09-11T05:58:34;5.05;;;2.60;;
4096;SDS011;2062;50.694;7.246;2022-09-11T06:01:02;5.68;;;2.70;;
4096;SDS011;2062;50.694;7.246;2022-09-11T06:03:30;5.63;;;2.77;;
4096;SDS011;2062;50.694;7.246;2022-09-11T06:05:57;5.13;;;2.90;;
4096;SDS011;2062;50.694;7.246;2022-09-11T06:08:26;5.45;;;2.85;;
4096;SDS011;2062;50.694;7.246;2022-09-11T06:10:53;4.90;;;2.70;;
4096;SDS011;2062;50.694;7.246;2022-09-11T06:13:22;4.75;;;2.72;;
4096;SDS011;2062;50.694;7.246;2022-09-11T06:15:48;4.67;;;2.53;;
4096;SDS011;2062;50.694;7.246;2022-09-11T06:18:15;5.70;;;3.00;;
4096;SDS011;2062;50.694;7.246;2022-09-11T06:20:42;5.65;;;3.03;;
4096;SDS011;2062;50.694;7.246;2022-09-11T06:23:19;5.68;;;2.95;;
4096;SDS011;2062;50.694;7.246;2022-09-11T06:25:47;6.30;;;3.05;;
4096;SDS011;2062;50.694;7.246;2022-09-11T06:28:14;5.37;;;2.90;;
4096;SDS011;2062;50.694;7.246;2022-09-11T06:30:41;5.00;;;2.70;;
4096;SDS011;2062;50.694;7.246;2022-09-11T06:33:07;5.78;;;2.80;;
4096;SDS011;2062;50.694;7.246;2022-09-11T06:35:34;5.57;;;2.65;;
4096;SDS011;2062;50.694;7.246;2022-09-11T06:38:01;5.20;;;3.03;;
4096;SDS011;2062;50.694;7.246;2022-09-11T06:40:28;5.10;;;2.80;;
4096;SDS011;2062;50.694;7.246;2022-09-11T06:42:56;4.95;;;2.60;;
4096;SDS011;2062;50.694;7.246;2022-09-11T06:45:23;5.82;;;3.08;;
4096;SDS011;2062;50.694;7.246;2022-09-11T06:47:50;6.30;;;3.50;;
4096;SDS011;2062;50.694;7.246;2022-09-11T06:50:17;6.15;;;2.75;;
4096;SDS011;2062;50.694;7.246;2022-09-11T06:52:44;6.13;;;3.13;;
4096;SDS011;2062;50.694;7.246;2022-09-11T06:55:10;5.47;;;3.05;;
4096;SDS011;2062;50.694;7.246;2022-09-11T06:57:38;9.82;;;5.95;;
4096;SDS011;2062;50.694;7.246;2022-09-11T07:00:08;14.00;;;6.60;;
4096;SDS011;2062;50.694;7.246;2022-09-11T07:02:36;12.32;;;6.60;;
4096;SDS011;2062;50.694;7.246;2022-09-11T07:05:03;13.10;;;7.37;;
4096;SDS011;2062;50.694;7.246;2022-09-11T07:07:31;13.40;;;7.10;;
4096;SDS011;2062;50.694;7.246;2022-09-11T07:09:58;13.20;;;7.32;;
4096;SDS011;2062;50.694;7.246;2022-09-11T07:12:29;11.65;;;6.80;;
4096;SDS011;2062;50.694;7.246;2022-09-11T07:14:56;12.13;;;7.25;;
4096;SDS011;2062;50.694;7.246;2022-09-11T07:17:24;14.40;;;7.63;;
4096;SDS011;2062;50.694;7.246;2022-09-11T07:19:51;14.40;;;7.30;;
4096;SDS011;2062;50.694;7.246;2022-09-11T07:22:18;13.00;;;7.85;;
4096;SDS011;2062;50.694;7.246;2022-09-11T07:24:46;12.65;;;7.30;;
4096;SDS011;2062;50.694;7.246;2022-09-11T07:27:13;12.48;;;7.70;;
4096;SDS011;2062;50.694;7.246;2022-09-11T07:29:39;15.17;;;8.03;;
4096;SDS011;2062;50.694;7.246;2022-09-11T07:32:06;15.73;;;7.80;;
4096;SDS011;2062;50.694;7.246;2022-09-11T07:34:35;15.48;;;7.32;;
4096;SDS011;2062;50.694;7.246;2022-09-11T07:37:02;13.35;;;7.45;;
4096;SDS011;2062;50.694;7.246;2022-09-11T07:39:29;19.48;;;10.18;;
4096;SDS011;2062;50.694;7.246;2022-09-11T07:41:56;18.00;;;9.77;;
4096;SDS011;2062;50.694;7.246;2022-09-11T07:44:23;18.10;;;9.85;;
4096;SDS011;2062;50.694;7.246;2022-09-11T07:46:50;16.13;;;9.10;;
4096;SDS011;2062;50.694;7.246;2022-09-11T07:49:17;16.08;;;8.82;;
4096;SDS011;2062;50.694;7.246;2022-09-11T07:51:46;19.38;;;9.25;;
4096;SDS011;2062;50.694;7.246;2022-09-11T07:54:13;14.07;;;8.33;;
4096;SDS011;2062;50.694;7.246;2022-09-11T07:56:39;18.85;;;9.27;;
4096;SDS011;2062;50.694;7.246;2022-09-11T07:59:07;17.75;;;9.68;;
4096;SDS011;2062;50.694;7.246;2022-09-11T08:01:34;17.13;;;9.80;;
4096;SDS011;2062;50.694;7.246;2022-09-11T08:04:01;19.10;;;9.70;;
4096;SDS011;2062;50.694;7.246;2022-09-11T08:06:30;15.03;;;8.50;;
4096;SDS011;2062;50.694;7.246;2022-09-11T08:09:02;24.85;;;8.77;;
4096;SDS011;2062;50.694;7.246;2022-09-11T08:11:30;20.30;;;10.55;;
4096;SDS011;2062;50.694;7.246;2022-09-11T08:14:02;20.38;;;9.55;;
4096;SDS011;2062;50.694;7.246;2022-09-11T08:16:29;16.63;;;9.02;;
4096;SDS011;2062;50.694;7.246;2022-09-11T08:18:56;18.13;;;9.20;;
4096;SDS011;2062;50.694;7.246;2022-09-11T08:21:23;17.30;;;9.13;;
4096;SDS011;2062;50.694;7.246;2022-09-11T08:23:51;17.00;;;9.35;;
4096;SDS011;2062;50.694;7.246;2022-09-11T08:26:20;14.95;;;8.95;;
4096;SDS011;2062;50.694;7.246;2022-09-11T08:28:49;16.80;;;9.23;;
4096;SDS011;2062;50.694;7.246;2022-09-11T08:31:18;20.70;;;9.17;;
4096;SDS011;2062;50.694;7.246;2022-09-11T08:33:46;18.63;;;9.38;;
4096;SDS011;2062;50.694;7.246;2022-09-11T08:36:13;18.23;;;9.88;;
4096;SDS011;2062;50.694;7.246;2022-09-11T08:38:41;20.80;;;9.65;;
4096;SDS011;2062;50.694;7.246;2022-09-11T08:41:10;18.98;;;9.05;;
4096;SDS011;2062;50.694;7.246;2022-09-11T08:43:46;20.10;;;9.60;;
4096;SDS011;2062;50.694;7.246;2022-09-11T08:46:16;19.08;;;9.90;;
4096;SDS011;2062;50.694;7.246;2022-09-11T08:48:45;24.13;;;9.60;;
4096;SDS011;2062;50.694;7.246;2022-09-11T08:51:17;19.67;;;9.55;;
4096;SDS011;2062;50.694;7.246;2022-09-11T08:53:45;19.63;;;9.90;;
4096;SDS011;2062;50.694;7.246;2022-09-11T08:56:14;20.33;;;9.37;;
4096;SDS011;2062;50.694;7.246;2022-09-11T08:58:50;19.80;;;9.65;;
4096;SDS011;2062;50.694;7.246;2022-09-11T09:01:30;20.20;;;9.07;;
4096;SDS011;2062;50.694;7.246;2022-09-11T09:04:08;18.33;;;9.30;;
4096;SDS011;2062;50.694;7.246;2022-09-11T09:06:54;17.38;;;9.52;;
4096;SDS011;2062;50.694;7.246;2022-09-11T09:09:30;20.90;;;8.90;;
4096;SDS011;2062;50.694;7.246;2022-09-11T09:12:07;20.80;;;9.15;;
4096;SDS011;2062;50.694;7.246;2022-09-11T09:14:49;16.85;;;8.50;;
4096;SDS011;2062;50.694;7.246;2022-09-11T09:17:48;21.92;;;8.77;;
4096;SDS011;2062;50.694;7.246;2022-09-11T09:20:20;17.38;;;8.50;;
4096;SDS011;2062;50.694;7.246;2022-09-11T09:22:52;22.03;;;7.90;;
4096;SDS011;2062;50.694;7.246;2022-09-11T09:25:22;20.23;;;7.82;;
4096;SDS011;2062;50.694;7.246;2022-09-11T09:27:52;18.02;;;8.18;;
4096;SDS011;2062;50.694;7.246;2022-09-11T09:30:26;25.40;;;8.18;;
4096;SDS011;2062;50.694;7.246;2022-09-11T09:33:00;15.52;;;7.50;;
4096;SDS011;2062;50.694;7.246;2022-09-11T09:35:37;22.43;;;7.57;;
4096;SDS011;2062;50.694;7.246;2022-09-11T09:38:08;17.70;;;7.57;;
4096;SDS011;2062;50.694;7.246;2022-09-11T09:40:38;18.92;;;7.95;;
4096;SDS011;2062;50.694;7.246;2022-09-11T09:43:19;16.98;;;7.45;;
4096;SDS011;2062;50.694;7.246;2022-09-11T09:46:04;15.10;;;7.43;;
4096;SDS011;2062;50.694;7.246;2022-09-11T09:48:39;16.47;;;7.00;;
4096;SDS011;2062;50.694;7.246;2022-09-11T09:51:09;17.92;;;7.10;;
4096;SDS011;2062;50.694;7.246;2022-09-11T09:53:38;19.70;;;7.60;;
4096;SDS011;2062;50.694;7.246;2022-09-11T09:56:09;16.52;;;7.90;;
4096;SDS011;2062;50.694;7.246;2022-09-11T09:58:40;18.67;;;7.07;;
4096;SDS011;2062;50.694;7.246;2022-09-11T10:04:17;20.08;;;6.72;;
4096;SDS011;2062;50.694;7.246;2022-09-11T10:06:47;14.90;;;7.07;;
4096;SDS011;2062;50.694;7.246;2022-09-11T10:09:25;14.18;;;7.05;;
4096;SDS011;2062;50.694;7.246;2022-09-11T10:11:54;13.50;;;6.82;;
4096;SDS011;2062;50.694;7.246;2022-09-11T10:14:27;15.07;;;6.53;;
4096;SDS011;2062;50.694;7.246;2022-09-11T10:16:59;15.55;;;7.10;;
4096;SDS011;2062;50.694;7.246;2022-09-11T10:19:33;13.63;;;6.50;;
4096;SDS011;2062;50.694;7.246;2022-09-11T10:22:21;13.02;;;6.70;;
4096;SDS011;2062;50.694;7.246;2022-09-11T10:25:00;16.90;;;7.13;;
4096;SDS011;2062;50.694;7.246;2022-09-11T10:27:30;14.07;;;7.10;;
4096;SDS011;2062;50.694;7.246;2022-09-11T10:30:00;14.48;;;6.57;;
4096;SDS011;2062;50.694;7.246;2022-09-11T10:32:29;15.80;;;7.28;;
4096;SDS011;2062;50.694;7.246;2022-09-11T10:34:56;15.02;;;8.10;;
4096;SDS011;2062;50.694;7.246;2022-09-11T10:37:24;16.67;;;7.97;;
4096;SDS011;2062;50.694;7.246;2022-09-11T10:39:55;17.70;;;8.53;;
4096;SDS011;2062;50.694;7.246;2022-09-11T10:42:29;20.00;;;8.70;;
4096;SDS011;2062;50.694;7.246;2022-09-11T10:45:04;22.83;;;9.75;;
4096;SDS011;2062;50.694;7.246;2022-09-11T10:47:35;17.08;;;8.63;;
4096;SDS011;2062;50.694;7.246;2022-09-11T10:50:18;15.32;;;8.70;;
4096;SDS011;2062;50.694;7.246;2022-09-11T10:52:54;18.03;;;8.17;;
4096;SDS011;2062;50.694;7.246;2022-09-11T10:55:29;16.95;;;8.45;;
4096;SDS011;2062;50.694;7.246;2022-09-11T10:58:02;18.58;;;8.50;;
4096;SDS011;2062;50.694;7.246;2022-09-11T11:00:33;16.75;;;8.48;;
4096;SDS011;2062;50.694;7.246;2022-09-11T11:03:04;18.00;;;8.50;;
4096;SDS011;2062;50.694;7.246;2022-09-11T11:05:39;17.37;;;8.50;;
4096;SDS011;2062;50.694;7.246;2022-09-11T11:08:21;18.98;;;8.18;;
4096;SDS011;2062;50.694;7.246;2022-09-11T11:11:03;16.13;;;8.05;;
4096;SDS011;2062;50.694;7.246;2022-09-11T11:13:42;14.73;;;7.55;;
4096;SDS011;2062;50.694;7.246;2022-09-11T11:16:20;17.98;;;8.23;;
4096;SDS011;2062;50.694;7.246;2022-09-11T11:19:00;16.47;;;7.63;;
4096;SDS011;2062;50.694;7.246;2022-09-11T11:21:49;15.98;;;7.45;;
4096;SDS011;2062;50.694;7.246;2022-09-11T11:24:25;17.05;;;7.60;;
4096;SDS011;2062;50.694;7.246;2022-09-11T11:27:07;15.25;;;7.38;;
4096;SDS011;2062;50.694;7.246;2022-09-11T11:29:58;16.65;;;7.63;;
4096;SDS011;2062;50.694;7.246;2022-09-11T11:32:44;12.77;;;6.70;;
4096;SDS011;2062;50.694;7.246;2022-09-11T11:35:25;16.23;;;7.30;;
4096;SDS011;2062;50.694;7.246;2022-09-11T11:37:58;20.60;;;7.22;;
4096;SDS011;2062;50.694;7.246;2022-09-11T11:40:33;19.17;;;7.53;;
4096;SDS011;2062;50.694;7.246;2022-09-11T11:43:05;12.63;;;7.40;;
4096;SDS011;2062;50.694;7.246;2022-09-11T11:45:35;15.27;;;6.67;;
4096;SDS011;2062;50.694;7.246;2022-09-11T11:48:08;21.58;;;7.15;;
4096;SDS011;2062;50.694;7.246;2022-09-11T11:50:41;15.70;;;6.70;;
4096;SDS011;2062;50.694;7.246;2022-09-11T11:53:15;15.73;;;7.32;;
4096;SDS011;2062;50.694;7.246;2022-09-11T11:55:49;11.13;;;6.45;;
4096;SDS011;2062;50.694;7.246;2022-09-11T11:58:26;16.17;;;6.93;;
4096;SDS011;2062;50.694;7.246;2022-09-11T12:01:03;13.32;;;6.70;;
4096;SDS011;2062;50.694;7.246;2022-09-11T12:03:37;16.20;;;6.50;;
4096;SDS011;2062;50.694;7.246;2022-09-11T12:06:09;16.15;;;6.90;;
4096;SDS011;2062;50.694;7.246;2022-09-11T12:08:40;11.15;;;6.50;;
4096;SDS011;2062;50.694;7.246;2022-09-11T12:11:09;13.17;;;6.77;;
4096;SDS011;2062;50.694;7.246;2022-09-11T12:13:40;13.77;;;6.82;;
4096;SDS011;2062;50.694;7.246;2022-09-11T12:16:11;14.32;;;6.93;;
4096;SDS011;2062;50.694;7.246;2022-09-11T12:18:58;14.32;;;6.57;;
4096;SDS011;2062;50.694;7.246;2022-09-11T12:24:51;15.63;;;5.83;;
4096;SDS011;2062;50.694;7.246;2022-09-11T12:30:51;12.18;;;6.32;;
4096;SDS011;2062;50.694;7.246;2022-09-11T12:36:22;11.95;;;6.55;;
4096;SDS011;2062;50.694;7.246;2022-09-11T12:38:58;12.27;;;6.17;;
4096;SDS011;2062;50.694;7.246;2022-09-11T12:41:30;13.77;;;6.60;;
4096;SDS011;2062;50.694;7.246;2022-09-11T12:43:58;13.40;;;6.65;;
4096;SDS011;2062;50.694;7.246;2022-09-11T12:49:39;12.82;;;5.93;;
4096;SDS011;2062;50.694;7.246;2022-09-11T12:52:17;15.90;;;6.70;;
4096;SDS011;2062;50.694;7.246;2022-09-11T12:55:02;12.57;;;6.78;;
4096;SDS011;2062;50.694;7.246;2022-09-11T12:57:35;13.02;;;7.00;;
4096;SDS011;2062;50.694;7.246;2022-09-11T13:00:05;14.68;;;6.65;;
4096;SDS011;2062;50.694;7.246;2022-09-11T13:02:35;12.27;;;7.00;;
4096;SDS011;2062;50.694;7.246;2022-09-11T13:05:05;12.67;;;6.53;;
4096;SDS011;2062;50.694;7.246;2022-09-11T13:07:44;15.10;;;7.00;;
4096;SDS011;2062;50.694;7.246;2022-09-11T13:10:22;13.25;;;6.63;;
4096;SDS011;2062;50.694;7.246;2022-09-11T13:12:59;13.55;;;7.15;;
4096;SDS011;2062;50.694;7.246;2022-09-11T13:15:35;13.60;;;6.90;;
4096;SDS011;2062;50.694;7.246;2022-09-11T13:18:28;11.93;;;6.30;;
4096;SDS011;2062;50.694;7.246;2022-09-11T13:21:00;16.63;;;6.80;;
4096;SDS011;2062;50.694;7.246;2022-09-11T13:23:37;13.32;;;6.80;;
4096;SDS011;2062;50.694;7.246;2022-09-11T13:26:06;10.35;;;6.53;;
4096;SDS011;2062;50.694;7.246;2022-09-11T13:28:42;12.10;;;6.63;;
4096;SDS011;2062;50.694;7.246;2022-09-11T13:31:13;11.73;;;6.67;;
4096;SDS011;2062;50.694;7.246;2022-09-11T13:33:46;13.07;;;7.03;;
4096;SDS011;2062;50.694;7.246;2022-09-11T13:36:14;10.95;;;6.78;;
4096;SDS011;2062;50.694;7.246;2022-09-11T13:38:43;11.98;;;6.47;;
4096;SDS011;2062;50.694;7.246;2022-09-11T13:41:15;12.40;;;6.35;;
4096;SDS011;2062;50.694;7.246;2022-09-11T13:43:48;10.97;;;6.20;;
4096;SDS011;2062;50.694;7.246;2022-09-11T13:46:19;13.48;;;6.50;;
4096;SDS011;2062;50.694;7.246;2022-09-11T13:48:48;14.23;;;6.88;;
4096;SDS011;2062;50.694;7.246;2022-09-11T13:51:19;13.02;;;7.35;;
4096;SDS011;2062;50.694;7.246;2022-09-11T13:53:52;15.02;;;7.68;;
4096;SDS011;2062;50.694;7.246;2022-09-11T13:56:35;14.20;;;7.77;;
4096;SDS011;2062;50.694;7.246;2022-09-11T13:59:34;13.48;;;7.95;;
4096;SDS011;2062;50.694;7.246;2022-09-11T14:02:04;13.07;;;7.47;;
4096;SDS011;2062;50.694;7.246;2022-09-11T14:04:37;13.63;;;7.40;;
4096;SDS011;2062;50.694;7.246;2022-09-11T14:07:17;14.15;;;7.10;;
4096;SDS011;2062;50.694;7.246;2022-09-11T14:09:47;12.27;;;7.27;;
4096;SDS011;2062;50.694;7.246;2022-09-11T14:12:23;12.00;;;6.63;;
4096;SDS011;2062;50.694;7.246;2022-09-11T14:14:53;12.88;;;6.93;;
4096;SDS011;2062;50.694;7.246;2022-09-11T14:17:25;12.63;;;6.60;;
4096;SDS011;2062;50.694;7.246;2022-09-11T14:19:52;12.98;;;6.75;;
4096;SDS011;2062;50.694;7.246;2022-09-11T14:22:24;11.83;;;6.57;;
4096;SDS011;2062;50.694;7.246;2022-09-11T14:24:56;10.95;;;6.53;;
4096;SDS011;2062;50.694;7.246;2022-09-11T14:27:33;12.25;;;6.35;;
4096;SDS011;2062;50.694;7.246;2022-09-11T14:30:25;11.27;;;6.50;;
4096;SDS011;2062;50.694;7.246;2022-09-11T14:35:44;13.43;;;6.50;;
4096;SDS011;2062;50.694;7.246;2022-09-11T14:38:13;12.45;;;6.18;;
4096;SDS011;2062;50.694;7.246;2022-09-11T14:40:44;17.70;;;6.43;;
4096;SDS011;2062;50.694;7.246;2022-09-11T14:43:15;14.18;;;6.47;;
4096;SDS011;2062;50.694;7.246;2022-09-11T14:45:48;12.90;;;7.07;;
4096;SDS011;2062;50.694;7.246;2022-09-11T14:48:15;14.93;;;6.90;;
4096;SDS011;2062;50.694;7.246;2022-09-11T14:50:43;12.07;;;6.90;;
4096;SDS011;2062;50.694;7.246;2022-09-11T14:53:11;14.38;;;6.93;;
4096;SDS011;2062;50.694;7.246;2022-09-11T14:55:51;11.13;;;6.18;;
4096;SDS011;2062;50.694;7.246;2022-09-11T14:58:18;12.00;;;7.10;;
4096;SDS011;2062;50.694;7.246;2022-09-11T15:00:45;10.63;;;6.50;;
4096;SDS011;2062;50.694;7.246;2022-09-11T15:03:14;13.43;;;6.80;;
4096;SDS011;2062;50.694;7.246;2022-09-11T15:05:42;13.57;;;6.57;;
4096;SDS011;2062;50.694;7.246;2022-09-11T15:08:11;10.93;;;6.13;;
4096;SDS011;2062;50.694;7.246;2022-09-11T15:10:45;11.77;;;6.85;;
4096;SDS011;2062;50.694;7.246;2022-09-11T15:13:13;13.33;;;6.20;;
4096;SDS011;2062;50.694;7.246;2022-09-11T15:15:40;11.23;;;6.53;;
4096;SDS011;2062;50.694;7.246;2022-09-11T15:18:07;12.52;;;6.88;;
4096;SDS011;2062;50.694;7.246;2022-09-11T15:20:35;12.65;;;7.03;;
4096;SDS011;2062;50.694;7.246;2022-09-11T15:23:02;17.42;;;6.85;;
4096;SDS011;2062;50.694;7.246;2022-09-11T15:25:30;11.30;;;6.83;;
4096;SDS011;2062;50.694;7.246;2022-09-11T15:27:57;11.93;;;7.30;;
4096;SDS011;2062;50.694;7.246;2022-09-11T15:30:24;12.82;;;6.85;;
4096;SDS011;2062;50.694;7.246;2022-09-11T15:32:52;12.65;;;6.90;;
4096;SDS011;2062;50.694;7.246;2022-09-11T15:35:19;11.55;;;6.78;;
4096;SDS011;2062;50.694;7.246;2022-09-11T15:37:49;11.77;;;7.13;;
4096;SDS011;2062;50.694;7.246;2022-09-11T15:40:16;12.70;;;6.72;;
4096;SDS011;2062;50.694;7.246;2022-09-11T15:42:43;10.77;;;6.68;;
4096;SDS011;2062;50.694;7.246;2022-09-11T15:45:14;11.40;;;6.82;;
4096;SDS011;2062;50.694;7.246;2022-09-11T15:47:41;10.25;;;6.35;;
4096;SDS011;2062;50.694;7.246;2022-09-11T15:50:08;10.47;;;6.07;;
4096;SDS011;2062;50.694;7.246;2022-09-11T15:52:36;15.32;;;6.53;;